createdAt,value
2023-01-13T00:01:35.737Z,58.40
2023-01-13T00:04:06.061Z,59.10
2023-01-13T00:06:35.022Z,53.22
2023-01-13T00:09:03.960Z,60.75
2023-01-13T00:11:32.940Z,56.10
2023-01-13T00:14:01.882Z,54.70
2023-01-13T00:16:30.885Z,48.20
2023-01-13T00:18:59.842Z,42.92
2023-01-13T00:21:28.807Z,46.13
2023-01-13T00:23:57.766Z,44.55
2023-01-13T00:26:31.563Z,44.13
2023-01-13T00:29:01.599Z,47.45
2023-01-13T00:31:31.319Z,49.17
2023-01-13T00:34:01.865Z,41.63
2023-01-13T00:36:32.081Z,45.72
2023-01-13T00:39:01.367Z,43.88
2023-01-13T00:41:50.122Z,51.13
2023-01-13T00:44:19.099Z,57.60
2023-01-13T00:46:48.119Z,51.80
2023-01-13T00:49:17.099Z,57.00
2023-01-13T00:51:45.997Z,48.88
2023-01-13T00:54:14.948Z,56.35
2023-01-13T00:56:47.651Z,49.03
2023-01-13T00:59:16.742Z,56.20
2023-01-13T01:01:45.993Z,49.92
2023-01-13T01:04:15.083Z,49.95
2023-01-13T01:06:43.986Z,43.78
2023-01-13T01:09:16.442Z,34.55
2023-01-13T01:11:45.657Z,36.58
2023-01-13T01:14:15.453Z,30.25
2023-01-13T01:16:44.431Z,35.15
2023-01-13T01:19:13.453Z,36.08
2023-01-13T01:21:42.424Z,35.08
2023-01-13T01:24:11.958Z,40.35
2023-01-13T01:26:42.946Z,43.35
2023-01-13T01:29:16.655Z,45.17
2023-01-13T01:31:45.818Z,47.90
2023-01-13T01:34:15.365Z,44.75
2023-01-13T01:36:44.253Z,57.95
2023-01-13T01:39:13.446Z,69.78
2023-01-13T01:42:02.219Z,53.30
2023-01-13T01:44:59.961Z,54.50
2023-01-13T01:47:32.564Z,49.97
2023-01-13T01:50:04.701Z,57.35
2023-01-13T01:52:41.502Z,53.85
2023-01-13T01:55:21.339Z,42.22
2023-01-13T01:57:50.468Z,42.60
2023-01-13T02:00:19.913Z,37.05
2023-01-13T02:02:52.029Z,41.85
2023-01-13T02:05:21.496Z,42.50
2023-01-13T02:07:53.388Z,42.20
2023-01-13T02:10:24.811Z,45.00
2023-01-13T02:12:55.873Z,39.25
2023-01-13T02:15:31.885Z,36.88
2023-01-13T02:18:13.120Z,33.33
2023-01-13T02:20:58.853Z,32.85
2023-01-13T02:24:10.591Z,31.58
2023-01-13T02:26:54.095Z,38.05
2023-01-13T02:30:08.664Z,35.30
2023-01-13T02:32:56.297Z,34.57
2023-01-13T02:35:28.422Z,44.25
2023-01-13T02:38:00.310Z,30.23
2023-01-13T02:40:36.874Z,24.63
2023-01-13T02:43:25.958Z,21.73
2023-01-13T02:46:05.168Z,28.70
2023-01-13T02:48:38.232Z,29.17
2023-01-13T02:51:15.214Z,28.85
2023-01-13T02:54:00.971Z,28.08
2023-01-13T02:56:32.543Z,30.92
2023-01-13T02:59:03.407Z,23.45
2023-01-13T03:01:32.764Z,27.80
2023-01-13T03:04:12.344Z,25.65
2023-01-13T03:07:05.521Z,21.98
2023-01-13T03:09:45.737Z,32.50
2023-01-13T03:12:52.514Z,35.00
2023-01-13T03:16:06.897Z,28.20
2023-01-13T03:18:57.129Z,24.85
2023-01-13T03:21:42.708Z,24.45
2023-01-13T03:24:19.087Z,29.45
2023-01-13T03:26:50.659Z,32.33
2023-01-13T03:29:28.853Z,30.38
2023-01-13T03:32:14.032Z,30.75
2023-01-13T03:34:51.654Z,28.42
2023-01-13T03:37:26.231Z,29.50
2023-01-13T03:40:02.541Z,29.65
2023-01-13T03:42:34.916Z,26.58
2023-01-13T03:45:10.118Z,27.35
2023-01-13T03:47:46.029Z,24.98
2023-01-13T03:50:20.362Z,35.22
2023-01-13T03:52:53.395Z,28.48
2023-01-13T03:55:31.730Z,25.05
2023-01-13T03:58:15.459Z,28.88
2023-01-13T04:00:53.725Z,26.92
2023-01-13T04:03:33.120Z,24.13
2023-01-13T04:06:19.572Z,23.15
2023-01-13T04:08:57.054Z,21.50
2023-01-13T04:11:40.432Z,21.73
2023-01-13T04:14:12.952Z,22.07
2023-01-13T04:16:42.693Z,23.50
2023-01-13T04:19:11.756Z,21.20
2023-01-13T04:21:40.732Z,23.08
2023-01-13T04:24:11.124Z,23.48
2023-01-13T04:26:40.081Z,22.73
2023-01-13T04:29:09.069Z,25.38
2023-01-13T04:31:39.253Z,26.80
2023-01-13T04:34:08.403Z,26.55
2023-01-13T04:36:37.365Z,26.35
2023-01-13T04:39:06.522Z,30.30
2023-01-13T04:41:55.306Z,18.77
2023-01-13T04:44:24.214Z,18.90
2023-01-13T04:46:53.198Z,31.50
2023-01-13T04:49:22.409Z,26.00
2023-01-13T04:51:51.350Z,20.00
2023-01-13T04:54:20.303Z,15.98
2023-01-13T04:56:49.337Z,15.48
2023-01-13T04:59:18.523Z,19.13
2023-01-13T05:01:47.534Z,17.48
2023-01-13T05:04:16.656Z,23.10
2023-01-13T05:06:45.651Z,18.42
2023-01-13T05:09:16.699Z,26.33
2023-01-13T05:12:03.829Z,26.05
2023-01-13T05:14:50.873Z,24.15
2023-01-13T05:17:24.030Z,16.42
2023-01-13T05:19:53.375Z,15.77
2023-01-13T05:22:40.539Z,18.05
2023-01-13T05:25:24.066Z,14.75
2023-01-13T05:27:55.007Z,23.58
2023-01-13T05:30:27.003Z,21.95
2023-01-13T05:32:56.129Z,15.57
2023-01-13T05:35:26.009Z,18.98
2023-01-13T05:37:57.181Z,15.32
2023-01-13T05:40:44.485Z,12.77
2023-01-13T05:43:22.168Z,14.52
2023-01-13T05:46:11.164Z,9.43
2023-01-13T05:48:43.046Z,13.27
2023-01-13T05:51:14.302Z,12.82
2023-01-13T05:53:43.342Z,14.70
2023-01-13T05:56:13.910Z,12.63
2023-01-13T05:58:42.858Z,11.13
2023-01-13T06:01:12.361Z,11.45
2023-01-13T06:03:41.419Z,16.50
2023-01-13T06:06:10.497Z,18.70
2023-01-13T06:08:39.949Z,12.27
2023-01-13T06:11:09.149Z,15.18
2023-01-13T06:13:38.131Z,13.65
2023-01-13T06:16:07.506Z,18.92
2023-01-13T06:18:36.526Z,20.02
2023-01-13T06:21:05.965Z,14.52
2023-01-13T06:23:36.432Z,14.20
2023-01-13T06:26:20.310Z,16.83
2023-01-13T06:28:51.094Z,8.60
2023-01-13T06:31:20.669Z,11.23
2023-01-13T06:33:56.395Z,8.07
2023-01-13T06:36:30.897Z,17.48
2023-01-13T06:39:02.797Z,10.45
2023-01-13T06:41:52.260Z,11.90
2023-01-13T06:44:22.637Z,14.90
2023-01-13T06:46:52.777Z,7.13
2023-01-13T06:49:22.025Z,8.25
2023-01-13T06:51:51.058Z,8.63
2023-01-13T06:54:19.985Z,8.20
2023-01-13T06:56:48.917Z,7.53
2023-01-13T06:59:17.899Z,7.95
2023-01-13T07:01:47.009Z,13.77
2023-01-13T07:04:16.092Z,11.90
2023-01-13T07:06:45.133Z,11.38
2023-01-13T07:09:14.204Z,8.50
2023-01-13T07:11:43.158Z,12.68
2023-01-13T07:14:30.200Z,9.75
2023-01-13T07:16:59.107Z,24.67
2023-01-13T07:19:28.099Z,10.50
2023-01-13T07:21:57.069Z,11.98
2023-01-13T07:24:26.117Z,12.50
2023-01-13T07:26:55.187Z,6.93
2023-01-13T07:29:24.235Z,6.15
2023-01-13T07:31:53.264Z,13.68
2023-01-13T07:34:22.559Z,10.18
2023-01-13T07:36:51.556Z,6.25
2023-01-13T07:39:20.496Z,7.60
2023-01-13T07:42:07.438Z,16.88
2023-01-13T07:44:36.411Z,7.97
2023-01-13T07:47:07.047Z,6.32
2023-01-13T07:49:36.045Z,9.68
2023-01-13T07:52:05.222Z,14.10
2023-01-13T07:54:40.623Z,9.48
2023-01-13T07:57:10.409Z,13.90
2023-01-13T07:59:39.408Z,11.68
2023-01-13T08:02:12.250Z,9.70
2023-01-13T08:04:41.595Z,8.48
2023-01-13T08:07:10.574Z,7.15
2023-01-13T08:09:39.473Z,7.85
2023-01-13T08:12:27.052Z,18.63
2023-01-13T08:14:56.167Z,11.63
2023-01-13T08:17:25.467Z,18.60
2023-01-13T08:19:54.451Z,16.55
2023-01-13T08:22:23.961Z,11.10
2023-01-13T08:24:52.891Z,8.40
2023-01-13T08:27:21.827Z,7.68
2023-01-13T08:29:50.765Z,7.65
2023-01-13T08:32:19.765Z,10.57
2023-01-13T08:34:48.810Z,6.07
2023-01-13T08:37:17.799Z,8.20
2023-01-13T08:39:50.140Z,7.35
2023-01-13T08:42:19.192Z,8.73
2023-01-13T08:44:48.221Z,8.43
2023-01-13T08:47:17.205Z,14.15
2023-01-13T08:49:46.150Z,9.45
2023-01-13T08:52:16.920Z,15.10
2023-01-13T08:54:46.007Z,7.40
2023-01-13T08:57:16.354Z,8.02
2023-01-13T08:59:45.523Z,18.13
